sensor_id;sensor_type;location;lat;lon;timestamp;temperature;humidity
65472;DHT22;52068;50.710;14.492;2023-09-30T00:00:58;24.01;55.92
65472;DHT22;52068;50.710;14.492;2023-09-30T00:03:23;23.99;56.02
65472;DHT22;52068;50.710;14.492;2023-09-30T00:05:49;24.03;55.99
65472;DHT22;52068;50.710;14.492;2023-09-30T00:08:15;23.99;55.91
65472;DHT22;52068;50.710;14.492;2023-09-30T00:10:40;24.01;55.95
65472;DHT22;52068;50.710;14.492;2023-09-30T00:13:06;24.02;56.01
65472;DHT22;52068;50.710;14.492;2023-09-30T00:15:32;24.01;55.92
65472;DHT22;52068;50.710;14.492;2023-09-30T00:17:58;24.01;55.96
65472;DHT22;52068;50.710;14.492;2023-09-30T00:20:24;24.01;55.97
65472;DHT22;52068;50.710;14.492;2023-09-30T00:22:49;23.99;56.00
65472;DHT22;52068;50.710;14.492;2023-09-30T00:25:14;24.01;55.96
65472;DHT22;52068;50.710;14.492;2023-09-30T00:27:40;23.99;55.97
65472;DHT22;52068;50.710;14.492;2023-09-30T00:30:06;23.99;55.94
65472;DHT22;52068;50.710;14.492;2023-09-30T00:32:31;24.01;56.00
65472;DHT22;52068;50.710;14.492;2023-09-30T00:34:57;23.99;56.00
65472;DHT22;52068;50.710;14.492;2023-09-30T00:37:22;23.99;56.03
65472;DHT22;52068;50.710;14.492;2023-09-30T00:39:47;24.01;55.99
65472;DHT22;52068;50.710;14.492;2023-09-30T00:42:13;23.99;55.98
65472;DHT22;52068;50.710;14.492;2023-09-30T00:44:38;23.99;55.91
65472;DHT22;52068;50.710;14.492;2023-09-30T00:47:04;23.99;55.88
65472;DHT22;52068;50.710;14.492;2023-09-30T00:49:30;23.99;55.91
65472;DHT22;52068;50.710;14.492;2023-09-30T00:51:56;24.01;55.86
65472;DHT22;52068;50.710;14.492;2023-09-30T00:54:23;23.99;55.89
65472;DHT22;52068;50.710;14.492;2023-09-30T00:56:52;24.01;55.85
65472;DHT22;52068;50.710;14.492;2023-09-30T00:59:21;24.01;55.90
65472;DHT22;52068;50.710;14.492;2023-09-30T01:01:46;24.02;55.87
65472;DHT22;52068;50.710;14.492;2023-09-30T01:04:12;24.02;55.86
65472;DHT22;52068;50.710;14.492;2023-09-30T01:06:38;24.03;55.84
65472;DHT22;52068;50.710;14.492;2023-09-30T01:09:04;24.02;55.82
65472;DHT22;52068;50.710;14.492;2023-09-30T01:11:30;24.05;55.80
65472;DHT22;52068;50.710;14.492;2023-09-30T01:13:55;24.05;55.83
65472;DHT22;52068;50.710;14.492;2023-09-30T01:16:21;24.06;55.76
65472;DHT22;52068;50.710;14.492;2023-09-30T01:18:46;24.06;55.81
65472;DHT22;52068;50.710;14.492;2023-09-30T01:21:12;24.05;55.75
65472;DHT22;52068;50.710;14.492;2023-09-30T01:23:38;24.08;55.79
65472;DHT22;52068;50.710;14.492;2023-09-30T01:26:11;24.09;55.76
65472;DHT22;52068;50.710;14.492;2023-09-30T01:28:37;24.09;55.73
65472;DHT22;52068;50.710;14.492;2023-09-30T01:31:03;24.09;55.77
65472;DHT22;52068;50.710;14.492;2023-09-30T01:33:29;24.10;55.72
65472;DHT22;52068;50.710;14.492;2023-09-30T01:35:55;24.08;55.74
65472;DHT22;52068;50.710;14.492;2023-09-30T01:38:20;24.08;55.73
65472;DHT22;52068;50.710;14.492;2023-09-30T01:40:46;24.10;55.75
65472;DHT22;52068;50.710;14.492;2023-09-30T01:43:15;24.12;55.77
65472;DHT22;52068;50.710;14.492;2023-09-30T01:45:41;24.09;55.75
65472;DHT22;52068;50.710;14.492;2023-09-30T01:48:07;24.06;55.70
65472;DHT22;52068;50.710;14.492;2023-09-30T01:50:39;24.10;55.68
65472;DHT22;52068;50.710;14.492;2023-09-30T01:53:08;24.10;55.72
65472;DHT22;52068;50.710;14.492;2023-09-30T01:55:34;24.10;55.74
65472;DHT22;52068;50.710;14.492;2023-09-30T01:57:59;24.09;55.70
65472;DHT22;52068;50.710;14.492;2023-09-30T02:00:25;24.09;55.72
65472;DHT22;52068;50.710;14.492;2023-09-30T02:02:53;24.10;55.70
65472;DHT22;52068;50.710;14.492;2023-09-30T02:05:19;24.10;55.79
65472;DHT22;52068;50.710;14.492;2023-09-30T02:07:44;24.09;55.76
65472;DHT22;52068;50.710;14.492;2023-09-30T02:10:10;24.09;55.77
65472;DHT22;52068;50.710;14.492;2023-09-30T02:12:35;24.09;55.81
65472;DHT22;52068;50.710;14.492;2023-09-30T02:15:03;24.10;55.78
65472;DHT22;52068;50.710;14.492;2023-09-30T02:17:29;24.12;55.76
65472;DHT22;52068;50.710;14.492;2023-09-30T02:19:54;24.10;55.82
65472;DHT22;52068;50.710;14.492;2023-09-30T02:22:20;24.09;55.79
65472;DHT22;52068;50.710;14.492;2023-09-30T02:24:45;24.09;55.76
65472;DHT22;52068;50.710;14.492;2023-09-30T02:27:11;24.10;55.79
65472;DHT22;52068;50.710;14.492;2023-09-30T02:29:36;24.09;55.78
65472;DHT22;52068;50.710;14.492;2023-09-30T02:32:01;24.08;55.83
65472;DHT22;52068;50.710;14.492;2023-09-30T02:34:30;24.08;55.83
65472;DHT22;52068;50.710;14.492;2023-09-30T02:36:55;24.10;55.84
65472;DHT22;52068;50.710;14.492;2023-09-30T02:39:21;24.08;55.88
65472;DHT22;52068;50.710;14.492;2023-09-30T02:41:46;24.09;55.84
65472;DHT22;52068;50.710;14.492;2023-09-30T02:44:12;24.10;55.82
65472;DHT22;52068;50.710;14.492;2023-09-30T02:46:37;24.09;55.90
65472;DHT22;52068;50.710;14.492;2023-09-30T02:49:03;24.09;55.92
65472;DHT22;52068;50.710;14.492;2023-09-30T02:51:28;24.09;55.90
65472;DHT22;52068;50.710;14.492;2023-09-30T02:53:54;24.06;56.01
65472;DHT22;52068;50.710;14.492;2023-09-30T02:56:20;24.06;55.98
65472;DHT22;52068;50.710;14.492;2023-09-30T02:58:46;24.08;56.04
65472;DHT22;52068;50.710;14.492;2023-09-30T03:01:15;24.08;55.99
65472;DHT22;52068;50.710;14.492;2023-09-30T03:03:42;24.08;56.05
65472;DHT22;52068;50.710;14.492;2023-09-30T03:06:09;24.06;56.07
65472;DHT22;52068;50.710;14.492;2023-09-30T03:08:36;24.06;56.17
65472;DHT22;52068;50.710;14.492;2023-09-30T03:11:01;24.06;56.17
65472;DHT22;52068;50.710;14.492;2023-09-30T03:13:27;24.06;56.15
65472;DHT22;52068;50.710;14.492;2023-09-30T07:01:59;23.72;56.53
65472;DHT22;52068;50.710;14.492;2023-09-30T07:04:24;23.76;56.19
65472;DHT22;52068;50.710;14.492;2023-09-30T07:06:52;23.78;55.47
65472;DHT22;52068;50.710;14.492;2023-09-30T07:09:18;23.75;54.34
65472;DHT22;52068;50.710;14.492;2023-09-30T07:11:45;23.74;53.65
65472;DHT22;52068;50.710;14.492;2023-09-30T07:14:10;23.75;53.28
65472;DHT22;52068;50.710;14.492;2023-09-30T07:16:36;23.74;53.08
65472;DHT22;52068;50.710;14.492;2023-09-30T07:19:01;23.75;52.84
65472;DHT22;52068;50.710;14.492;2023-09-30T07:21:28;23.71;52.59
65472;DHT22;52068;50.710;14.492;2023-09-30T07:23:53;23.71;52.53
65472;DHT22;52068;50.710;14.492;2023-09-30T07:26:25;23.72;52.48
65472;DHT22;52068;50.710;14.492;2023-09-30T07:28:51;23.71;52.49
65472;DHT22;52068;50.710;14.492;2023-09-30T07:31:19;23.72;52.37
65472;DHT22;52068;50.710;14.492;2023-09-30T07:33:44;23.72;52.43
65472;DHT22;52068;50.710;14.492;2023-09-30T07:36:10;23.74;52.16
65472;DHT22;52068;50.710;14.492;2023-09-30T07:38:35;23.74;52.57
65472;DHT22;52068;50.710;14.492;2023-09-30T07:41:00;23.74;52.84
65472;DHT22;52068;50.710;14.492;2023-09-30T07:43:28;23.74;52.79
65472;DHT22;52068;50.710;14.492;2023-09-30T07:45:53;23.75;53.05
65472;DHT22;52068;50.710;14.492;2023-09-30T07:48:19;23.74;52.95
65472;DHT22;52068;50.710;14.492;2023-09-30T07:50:44;23.76;52.97
65472;DHT22;52068;50.710;14.492;2023-09-30T07:53:09;23.75;52.94
65472;DHT22;52068;50.710;14.492;2023-09-30T07:55:37;23.75;52.72
65472;DHT22;52068;50.710;14.492;2023-09-30T07:58:02;23.76;53.00
65472;DHT22;52068;50.710;14.492;2023-09-30T08:00:28;23.75;52.84
65472;DHT22;52068;50.710;14.492;2023-09-30T08:02:54;23.76;52.91
65472;DHT22;52068;50.710;14.492;2023-09-30T08:05:20;23.79;52.88
65472;DHT22;52068;50.710;14.492;2023-09-30T08:07:45;23.76;52.80
65472;DHT22;52068;50.710;14.492;2023-09-30T08:10:11;23.79;53.33
65472;DHT22;52068;50.710;14.492;2023-09-30T08:12:41;23.78;52.65
65472;DHT22;52068;50.710;14.492;2023-09-30T08:15:07;23.82;53.04
65472;DHT22;52068;50.710;14.492;2023-09-30T08:17:32;23.82;53.97
65472;DHT22;52068;50.710;14.492;2023-09-30T08:19:59;23.88;54.17
65472;DHT22;52068;50.710;14.492;2023-09-30T08:22:24;23.89;54.08
65472;DHT22;52068;50.710;14.492;2023-09-30T08:24:53;23.90;54.49
65472;DHT22;52068;50.710;14.492;2023-09-30T08:27:18;23.92;54.58
65472;DHT22;52068;50.710;14.492;2023-09-30T08:29:44;23.92;54.40
65472;DHT22;52068;50.710;14.492;2023-09-30T08:32:09;23.92;54.55
65472;DHT22;52068;50.710;14.492;2023-09-30T08:34:35;23.98;54.33
65472;DHT22;52068;50.710;14.492;2023-09-30T08:37:00;23.99;54.01
65472;DHT22;52068;50.710;14.492;2023-09-30T08:39:27;24.01;53.66
65472;DHT22;52068;50.710;14.492;2023-09-30T08:41:54;24.03;53.24
65472;DHT22;52068;50.710;14.492;2023-09-30T08:44:20;24.03;53.29
65472;DHT22;52068;50.710;14.492;2023-09-30T08:46:46;24.05;52.80
65472;DHT22;52068;50.710;14.492;2023-09-30T08:49:13;24.06;52.91
65472;DHT22;52068;50.710;14.492;2023-09-30T08:51:39;24.08;52.36
65472;DHT22;52068;50.710;14.492;2023-09-30T08:54:05;24.08;51.79
65472;DHT22;52068;50.710;14.492;2023-09-30T08:56:32;24.09;52.03
65472;DHT22;52068;50.710;14.492;2023-09-30T08:59:02;24.08;52.07
65472;DHT22;52068;50.710;14.492;2023-09-30T09:01:29;24.06;51.79
65472;DHT22;52068;50.710;14.492;2023-09-30T09:03:55;24.08;51.50
65472;DHT22;52068;50.710;14.492;2023-09-30T09:06:25;24.05;51.63
65472;DHT22;52068;50.710;14.492;2023-09-30T09:08:51;24.05;51.83
65472;DHT22;52068;50.710;14.492;2023-09-30T09:11:17;24.06;51.85
65472;DHT22;52068;50.710;14.492;2023-09-30T09:13:50;24.05;51.99
65472;DHT22;52068;50.710;14.492;2023-09-30T09:16:18;24.06;52.14
65472;DHT22;52068;50.710;14.492;2023-09-30T09:18:44;24.08;52.08
65472;DHT22;52068;50.710;14.492;2023-09-30T09:21:14;24.09;52.26
65472;DHT22;52068;50.710;14.492;2023-09-30T09:23:42;24.09;52.14
65472;DHT22;52068;50.710;14.492;2023-09-30T09:26:09;24.10;52.26
65472;DHT22;52068;50.710;14.492;2023-09-30T09:28:35;24.12;51.31
65472;DHT22;52068;50.710;14.492;2023-09-30T09:31:02;24.13;51.71
65472;DHT22;52068;50.710;14.492;2023-09-30T09:33:35;24.15;52.16
65472;DHT22;52068;50.710;14.492;2023-09-30T09:36:02;24.13;51.89
65472;DHT22;52068;50.710;14.492;2023-09-30T09:38:43;24.16;51.89
65472;DHT22;52068;50.710;14.492;2023-09-30T09:41:09;24.15;51.68
65472;DHT22;52068;50.710;14.492;2023-09-30T09:43:37;24.16;51.66
65472;DHT22;52068;50.710;14.492;2023-09-30T09:46:07;24.12;52.01
65472;DHT22;52068;50.710;14.492;2023-09-30T09:48:35;24.15;51.70
65472;DHT22;52068;50.710;14.492;2023-09-30T09:51:01;24.13;51.53
65472;DHT22;52068;50.710;14.492;2023-09-30T09:53:31;24.16;51.91
65472;DHT22;52068;50.710;14.492;2023-09-30T09:55:59;24.15;51.35
65472;DHT22;52068;50.710;14.492;2023-09-30T09:58:26;24.16;51.92
65472;DHT22;52068;50.710;14.492;2023-09-30T10:00:52;24.17;51.68
65472;DHT22;52068;50.710;14.492;2023-09-30T10:03:18;24.19;51.62
65472;DHT22;52068;50.710;14.492;2023-09-30T10:05:44;24.19;51.54
65472;DHT22;52068;50.710;14.492;2023-09-30T10:08:16;24.19;51.48
65472;DHT22;52068;50.710;14.492;2023-09-30T10:10:43;24.20;51.62
65472;DHT22;52068;50.710;14.492;2023-09-30T10:13:09;24.17;51.42
65472;DHT22;52068;50.710;14.492;2023-09-30T10:15:36;24.16;51.59
65472;DHT22;52068;50.710;14.492;2023-09-30T10:18:04;24.19;52.11
65472;DHT22;52068;50.710;14.492;2023-09-30T10:20:31;24.19;51.71
65472;DHT22;52068;50.710;14.492;2023-09-30T10:25:49;24.19;51.97
65472;DHT22;52068;50.710;14.492;2023-09-30T10:28:33;24.20;52.01
65472;DHT22;52068;50.710;14.492;2023-09-30T10:31:14;24.20;52.21
65472;DHT22;52068;50.710;14.492;2023-09-30T10:36:37;24.22;51.66
65472;DHT22;52068;50.710;14.492;2023-09-30T10:39:12;24.23;51.48
65472;DHT22;52068;50.710;14.492;2023-09-30T10:46:54;24.27;52.36
65472;DHT22;52068;50.710;14.492;2023-09-30T10:51:52;24.27;51.58
65472;DHT22;52068;50.710;14.492;2023-09-30T10:54:25;24.27;51.72
65472;DHT22;52068;50.710;14.492;2023-09-30T10:56:51;24.29;51.76
65472;DHT22;52068;50.710;14.492;2023-09-30T10:59:25;24.30;51.76
65472;DHT22;52068;50.710;14.492;2023-09-30T11:01:51;24.30;52.10
65472;DHT22;52068;50.710;14.492;2023-09-30T11:04:18;24.34;52.20
65472;DHT22;52068;50.710;14.492;2023-09-30T11:06:45;24.34;51.87
65472;DHT22;52068;50.710;14.492;2023-09-30T11:09:15;24.34;51.71
65472;DHT22;52068;50.710;14.492;2023-09-30T11:11:46;24.34;51.92
65472;DHT22;52068;50.710;14.492;2023-09-30T11:14:27;24.37;51.57
65472;DHT22;52068;50.710;14.492;2023-09-30T11:16:55;24.36;51.87
65472;DHT22;52068;50.710;14.492;2023-09-30T11:19:22;24.40;51.66
65472;DHT22;52068;50.710;14.492;2023-09-30T11:21:49;24.44;52.03
65472;DHT22;52068;50.710;14.492;2023-09-30T11:24:15;24.44;51.72
65472;DHT22;52068;50.710;14.492;2023-09-30T11:26:41;24.43;51.71
65472;DHT22;52068;50.710;14.492;2023-09-30T11:29:14;24.46;52.04
65472;DHT22;52068;50.710;14.492;2023-09-30T11:31:46;24.46;51.88
65472;DHT22;52068;50.710;14.492;2023-09-30T11:34:12;24.46;52.05
65472;DHT22;52068;50.710;14.492;2023-09-30T11:36:40;24.49;52.08
65472;DHT22;52068;50.710;14.492;2023-09-30T11:39:08;24.49;52.13
65472;DHT22;52068;50.710;14.492;2023-09-30T11:41:38;24.53;52.13
65472;DHT22;52068;50.710;14.492;2023-09-30T11:44:08;24.53;51.84
65472;DHT22;52068;50.710;14.492;2023-09-30T11:46:54;24.54;52.09
65472;DHT22;52068;50.710;14.492;2023-09-30T11:49:38;24.54;52.03
65472;DHT22;52068;50.710;14.492;2023-09-30T11:52:06;24.56;51.78
65472;DHT22;52068;50.710;14.492;2023-09-30T11:54:34;24.59;51.66
65472;DHT22;52068;50.710;14.492;2023-09-30T11:57:02;24.59;51.47
65472;DHT22;52068;50.710;14.492;2023-09-30T11:59:29;24.64;51.18
65472;DHT22;52068;50.710;14.492;2023-09-30T12:01:56;24.63;51.29
65472;DHT22;52068;50.710;14.492;2023-09-30T12:04:21;24.64;50.45
65472;DHT22;52068;50.710;14.492;2023-09-30T12:06:47;24.70;50.90
65472;DHT22;52068;50.710;14.492;2023-09-30T12:09:14;24.70;50.65
65472;DHT22;52068;50.710;14.492;2023-09-30T12:11:41;24.74;51.14
65472;DHT22;52068;50.710;14.492;2023-09-30T12:14:10;24.75;51.30
65472;DHT22;52068;50.710;14.492;2023-09-30T12:16:35;24.78;50.46
65472;DHT22;52068;50.710;14.492;2023-09-30T12:19:01;24.77;51.13
65472;DHT22;52068;50.710;14.492;2023-09-30T12:21:26;24.81;50.96
65472;DHT22;52068;50.710;14.492;2023-09-30T12:23:51;24.81;51.09
65472;DHT22;52068;50.710;14.492;2023-09-30T12:26:17;24.83;51.02
65472;DHT22;52068;50.710;14.492;2023-09-30T12:28:43;24.85;51.17
65472;DHT22;52068;50.710;14.492;2023-09-30T12:31:09;24.87;50.93
65472;DHT22;52068;50.710;14.492;2023-09-30T12:33:35;24.87;51.24
65472;DHT22;52068;50.710;14.492;2023-09-30T12:36:01;24.91;50.83
65472;DHT22;52068;50.710;14.492;2023-09-30T12:38:27;24.92;51.20
65472;DHT22;52068;50.710;14.492;2023-09-30T12:40:54;24.95;51.04
65472;DHT22;52068;50.710;14.492;2023-09-30T12:43:21;24.94;51.11
65472;DHT22;52068;50.710;14.492;2023-09-30T12:45:47;24.96;51.22
65472;DHT22;52068;50.710;14.492;2023-09-30T12:48:13;24.95;51.13
65472;DHT22;52068;50.710;14.492;2023-09-30T12:50:39;24.98;51.36
65472;DHT22;52068;50.710;14.492;2023-09-30T12:53:04;24.98;51.24
65472;DHT22;52068;50.710;14.492;2023-09-30T12:55:30;24.99;51.38
65472;DHT22;52068;50.710;14.492;2023-09-30T12:57:55;25.01;51.40
65472;DHT22;52068;50.710;14.492;2023-09-30T13:00:21;25.04;51.37
65472;DHT22;52068;50.710;14.492;2023-09-30T13:02:47;25.04;51.43
65472;DHT22;52068;50.710;14.492;2023-09-30T13:05:13;25.07;51.41
65472;DHT22;52068;50.710;14.492;2023-09-30T13:07:39;25.07;51.31
65472;DHT22;52068;50.710;14.492;2023-09-30T13:10:05;25.10;51.41
65472;DHT22;52068;50.710;14.492;2023-09-30T13:12:31;25.11;51.26
65472;DHT22;52068;50.710;14.492;2023-09-30T13:14:58;25.12;51.30
65472;DHT22;52068;50.710;14.492;2023-09-30T13:17:24;25.14;51.30
65472;DHT22;52068;50.710;14.492;2023-09-30T13:19:50;25.15;51.24
65472;DHT22;52068;50.710;14.492;2023-09-30T13:22:17;25.18;51.28
65472;DHT22;52068;50.710;14.492;2023-09-30T13:24:42;25.21;51.18
65472;DHT22;52068;50.710;14.492;2023-09-30T13:27:08;25.22;51.13
65472;DHT22;52068;50.710;14.492;2023-09-30T13:29:33;25.21;51.20
65472;DHT22;52068;50.710;14.492;2023-09-30T13:31:59;25.22;51.15
65472;DHT22;52068;50.710;14.492;2023-09-30T13:34:24;25.25;51.11
65472;DHT22;52068;50.710;14.492;2023-09-30T13:36:50;25.28;51.12
65472;DHT22;52068;50.710;14.492;2023-09-30T13:39:15;25.29;51.05
65472;DHT22;52068;50.710;14.492;2023-09-30T13:41:45;25.35;50.98
65472;DHT22;52068;50.710;14.492;2023-09-30T13:44:12;25.32;51.03
65472;DHT22;52068;50.710;14.492;2023-09-30T13:46:38;25.39;51.00
65472;DHT22;52068;50.710;14.492;2023-09-30T13:49:03;25.35;50.94
65472;DHT22;52068;50.710;14.492;2023-09-30T13:51:29;25.39;50.97
65472;DHT22;52068;50.710;14.492;2023-09-30T13:53:54;25.41;50.91
65472;DHT22;52068;50.710;14.492;2023-09-30T13:56:20;25.41;50.87
65472;DHT22;52068;50.710;14.492;2023-09-30T13:58:45;25.45;50.87
65472;DHT22;52068;50.710;14.492;2023-09-30T14:01:13;25.46;50.87
65472;DHT22;52068;50.710;14.492;2023-09-30T14:03:39;25.49;50.84
65472;DHT22;52068;50.710;14.492;2023-09-30T14:06:12;25.49;50.85
65472;DHT22;52068;50.710;14.492;2023-09-30T14:08:38;25.52;50.84
65472;DHT22;52068;50.710;14.492;2023-09-30T14:11:04;25.58;50.75
65472;DHT22;52068;50.710;14.492;2023-09-30T14:13:30;25.59;50.64
65472;DHT22;52068;50.710;14.492;2023-09-30T14:15:55;25.66;50.69
65472;DHT22;52068;50.710;14.492;2023-09-30T14:22:05;25.75;50.46
65472;DHT22;52068;50.710;14.492;2023-09-30T14:24:31;25.82;50.38
65472;DHT22;52068;50.710;14.492;2023-09-30T14:26:58;25.82;50.31
65472;DHT22;52068;50.710;14.492;2023-09-30T14:29:24;25.86;50.20
65472;DHT22;52068;50.710;14.492;2023-09-30T14:31:50;25.87;50.15
65472;DHT22;52068;50.710;14.492;2023-09-30T14:34:15;25.90;50.10
65472;DHT22;52068;50.710;14.492;2023-09-30T14:36:40;25.92;50.11
65472;DHT22;52068;50.710;14.492;2023-09-30T14:39:06;25.94;50.07
65472;DHT22;52068;50.710;14.492;2023-09-30T14:41:31;25.96;50.02
65472;DHT22;52068;50.710;14.492;2023-09-30T14:43:58;25.97;50.08
65472;DHT22;52068;50.710;14.492;2023-09-30T14:46:23;26.00;50.01
65472;DHT22;52068;50.710;14.492;2023-09-30T14:48:49;26.01;50.00
65472;DHT22;52068;50.710;14.492;2023-09-30T14:51:15;26.03;50.03
65472;DHT22;52068;50.710;14.492;2023-09-30T14:53:40;26.03;49.99
65472;DHT22;52068;50.710;14.492;2023-09-30T14:56:17;26.06;50.06
65472;DHT22;52068;50.710;14.492;2023-09-30T14:58:43;26.06;50.05
65472;DHT22;52068;50.710;14.492;2023-09-30T15:01:10;26.07;50.00
65472;DHT22;52068;50.710;14.492;2023-09-30T15:03:35;26.07;49.96
65472;DHT22;52068;50.710;14.492;2023-09-30T15:06:03;26.08;49.95
65472;DHT22;52068;50.710;14.492;2023-09-30T15:08:30;26.04;49.94
65472;DHT22;52068;50.710;14.492;2023-09-30T15:10:57;26.06;50.03
65472;DHT22;52068;50.710;14.492;2023-09-30T15:13:23;26.04;50.05
65472;DHT22;52068;50.710;14.492;2023-09-30T15:15:48;26.06;50.09
65472;DHT22;52068;50.710;14.492;2023-09-30T15:18:13;26.08;50.10
65472;DHT22;52068;50.710;14.492;2023-09-30T15:20:39;26.08;50.15
65472;DHT22;52068;50.710;14.492;2023-09-30T15:23:05;26.08;50.15
65472;DHT22;52068;50.710;14.492;2023-09-30T15:25:31;26.06;50.19
65472;DHT22;52068;50.710;14.492;2023-09-30T15:27:57;26.08;50.27
65472;DHT22;52068;50.710;14.492;2023-09-30T15:30:22;26.07;50.33
65472;DHT22;52068;50.710;14.492;2023-09-30T15:32:48;26.07;50.52
65472;DHT22;52068;50.710;14.492;2023-09-30T15:35:13;26.03;49.99
65472;DHT22;52068;50.710;14.492;2023-09-30T15:37:38;26.00;49.89
65472;DHT22;52068;50.710;14.492;2023-09-30T15:40:04;25.96;49.68
65472;DHT22;52068;50.710;14.492;2023-09-30T15:42:32;25.92;49.46
65472;DHT22;52068;50.710;14.492;2023-09-30T15:44:57;25.87;49.01
65472;DHT22;52068;50.710;14.492;2023-09-30T15:47:23;25.84;48.61
65472;DHT22;52068;50.710;14.492;2023-09-30T15:49:49;25.80;48.48
65472;DHT22;52068;50.710;14.492;2023-09-30T15:52:15;25.77;47.80
65472;DHT22;52068;50.710;14.492;2023-09-30T15:54:41;25.75;47.51
65472;DHT22;52068;50.710;14.492;2023-09-30T15:57:06;25.69;47.27
65472;DHT22;52068;50.710;14.492;2023-09-30T15:59:33;25.69;47.14
65472;DHT22;52068;50.710;14.492;2023-09-30T16:01:59;25.65;47.03
65472;DHT22;52068;50.710;14.492;2023-09-30T16:04:24;25.65;47.10
65472;DHT22;52068;50.710;14.492;2023-09-30T16:06:49;25.62;45.81
65472;DHT22;52068;50.710;14.492;2023-09-30T16:09:15;25.53;44.63
65472;DHT22;52068;50.710;14.492;2023-09-30T16:11:41;25.46;44.10
65472;DHT22;52068;50.710;14.492;2023-09-30T16:14:07;25.42;44.13
65472;DHT22;52068;50.710;14.492;2023-09-30T16:16:33;25.35;44.41
65472;DHT22;52068;50.710;14.492;2023-09-30T16:18:59;25.28;44.97
65472;DHT22;52068;50.710;14.492;2023-09-30T16:21:24;25.19;44.07
65472;DHT22;52068;50.710;14.492;2023-09-30T16:23:51;25.11;44.90
65472;DHT22;52068;50.710;14.492;2023-09-30T16:26:17;25.04;45.34
65472;DHT22;52068;50.710;14.492;2023-09-30T16:28:42;24.95;45.70
65472;DHT22;52068;50.710;14.492;2023-09-30T16:31:07;24.88;45.76
65472;DHT22;52068;50.710;14.492;2023-09-30T16:33:33;24.84;45.92
65472;DHT22;52068;50.710;14.492;2023-09-30T16:35:58;24.78;45.02
65472;DHT22;52068;50.710;14.492;2023-09-30T16:38:23;24.71;45.55
65472;DHT22;52068;50.710;14.492;2023-09-30T16:40:52;24.67;45.46
65472;DHT22;52068;50.710;14.492;2023-09-30T16:43:17;24.59;45.04
65472;DHT22;52068;50.710;14.492;2023-09-30T16:45:43;24.56;44.99
65472;DHT22;52068;50.710;14.492;2023-09-30T16:48:10;24.49;44.84
65472;DHT22;52068;50.710;14.492;2023-09-30T16:50:36;24.47;43.68
65472;DHT22;52068;50.710;14.492;2023-09-30T16:53:01;24.50;42.97
65472;DHT22;52068;50.710;14.492;2023-09-30T16:55:27;24.44;42.81
65472;DHT22;52068;50.710;14.492;2023-09-30T16:57:53;24.44;42.72
65472;DHT22;52068;50.710;14.492;2023-09-30T17:00:19;24.40;42.68
65472;DHT22;52068;50.710;14.492;2023-09-30T17:02:44;24.34;42.64
65472;DHT22;52068;50.710;14.492;2023-09-30T17:05:10;24.30;42.57
65472;DHT22;52068;50.710;14.492;2023-09-30T17:07:36;24.26;42.51
65472;DHT22;52068;50.710;14.492;2023-09-30T17:10:02;24.17;42.15
65472;DHT22;52068;50.710;14.492;2023-09-30T17:12:29;24.10;42.07
65472;DHT22;52068;50.710;14.492;2023-09-30T17:14:55;24.03;42.18
65472;DHT22;52068;50.710;14.492;2023-09-30T17:17:20;23.99;42.42
65472;DHT22;52068;50.710;14.492;2023-09-30T17:19:45;23.95;42.59
65472;DHT22;52068;50.710;14.492;2023-09-30T17:22:11;23.89;42.66
65472;DHT22;52068;50.710;14.492;2023-09-30T17:24:39;23.85;42.88
65472;DHT22;52068;50.710;14.492;2023-09-30T17:27:06;23.79;43.17
65472;DHT22;52068;50.710;14.492;2023-09-30T17:29:34;23.71;43.35
65472;DHT22;52068;50.710;14.492;2023-09-30T17:31:59;23.65;43.37
65472;DHT22;52068;50.710;14.492;2023-09-30T17:34:29;23.61;43.71
65472;DHT22;52068;50.710;14.492;2023-09-30T17:36:54;23.54;43.87
65472;DHT22;52068;50.710;14.492;2023-09-30T17:39:20;23.45;44.00
65472;DHT22;52068;50.710;14.492;2023-09-30T17:41:45;23.41;44.07
65472;DHT22;52068;50.710;14.492;2023-09-30T17:44:12;23.38;44.03
65472;DHT22;52068;50.710;14.492;2023-09-30T17:46:38;23.30;44.21
65472;DHT22;52068;50.710;14.492;2023-09-30T17:49:04;23.25;44.29
65472;DHT22;52068;50.710;14.492;2023-09-30T17:51:29;23.15;44.36
65472;DHT22;52068;50.710;14.492;2023-09-30T17:53:56;23.11;44.27
65472;DHT22;52068;50.710;14.492;2023-09-30T17:56:22;23.06;44.57
65472;DHT22;52068;50.710;14.492;2023-09-30T17:58:50;23.02;44.54
65472;DHT22;52068;50.710;14.492;2023-09-30T18:01:17;22.94;44.79
65472;DHT22;52068;50.710;14.492;2023-09-30T18:03:51;22.89;44.74
65472;DHT22;52068;50.710;14.492;2023-09-30T18:06:16;22.83;44.81
65472;DHT22;52068;50.710;14.492;2023-09-30T18:08:43;22.79;44.97
65472;DHT22;52068;50.710;14.492;2023-09-30T18:11:11;22.74;45.13
65472;DHT22;52068;50.710;14.492;2023-09-30T18:13:38;22.67;44.90
65472;DHT22;52068;50.710;14.492;2023-09-30T18:16:04;22.62;45.12
65472;DHT22;52068;50.710;14.492;2023-09-30T18:18:32;22.60;45.51
65472;DHT22;52068;50.710;14.492;2023-09-30T18:20:57;22.60;47.09
65472;DHT22;52068;50.710;14.492;2023-09-30T18:23:23;22.63;48.76
65472;DHT22;52068;50.710;14.492;2023-09-30T18:25:48;22.72;49.29
65472;DHT22;52068;50.710;14.492;2023-09-30T18:28:14;22.80;49.03
65472;DHT22;52068;50.710;14.492;2023-09-30T18:30:40;22.87;49.34
65472;DHT22;52068;50.710;14.492;2023-09-30T18:33:06;22.96;49.55
65472;DHT22;52068;50.710;14.492;2023-09-30T18:35:32;23.04;49.86
65472;DHT22;52068;50.710;14.492;2023-09-30T18:37:58;23.10;49.98
65472;DHT22;52068;50.710;14.492;2023-09-30T18:40:23;23.17;50.19
65472;DHT22;52068;50.710;14.492;2023-09-30T18:42:48;23.24;50.13
65472;DHT22;52068;50.710;14.492;2023-09-30T18:45:14;23.28;50.11
65472;DHT22;52068;50.710;14.492;2023-09-30T18:47:39;23.31;50.18
65472;DHT22;52068;50.710;14.492;2023-09-30T18:50:05;23.43;50.16
65472;DHT22;52068;50.710;14.492;2023-09-30T18:52:31;23.41;50.32
65472;DHT22;52068;50.710;14.492;2023-09-30T18:54:56;23.45;50.39
65472;DHT22;52068;50.710;14.492;2023-09-30T18:57:22;23.52;50.32
65472;DHT22;52068;50.710;14.492;2023-09-30T18:59:47;23.54;50.35
65472;DHT22;52068;50.710;14.492;2023-09-30T19:02:13;23.54;50.46
65472;DHT22;52068;50.710;14.492;2023-09-30T19:04:39;23.59;50.24
65472;DHT22;52068;50.710;14.492;2023-09-30T19:07:04;23.59;50.35
65472;DHT22;52068;50.710;14.492;2023-09-30T19:09:30;23.64;50.75
65472;DHT22;52068;50.710;14.492;2023-09-30T19:11:56;23.68;50.51
65472;DHT22;52068;50.710;14.492;2023-09-30T19:14:21;23.66;50.50